^^

Meteo Aereoporti Centro-Italia

 

 
LIRZ - Perugia S.Egidio (208 m.)
Dati ricevuti: 16/10/2018 01:50
Poco nuvoloso
Poco nuvoloso
 Vento da NNW
Vento: NNW 13 km/h
TEMPERATURA: 15°C
P.to di Rugiada: 12°C
Umidità: 82%
Pressione: 1018 hPa
Nuvole: Poco nuvoloso
Visibilità: 10 km
Dettagli Nuvole: Qualche nuvola 2164 m
Poco nuvoloso 2438 m
2018/10/15 23:50 LIRZ 152350Z AUTO 34007KT 9999 FEW071/// SCT080/// 15/12 Q1018
 
LIPY - Ancona Falconara (12 m.)
Dati ricevuti: 15/10/2018 23:50
Dati non aggiornati
Molto nuvoloso
Molto nuvoloso
 Vento da direzione variabile
Vento: direzione variabile 2 km/h
TEMPERATURA: 18°C
P.to di Rugiada: 17°C
Umidità: 94%
Pressione: 1019 hPa
Nuvole: Molto nuvoloso
Visibilità: 10 km
Dettagli Nuvole: Poco nuvoloso 610 m
Molto nuvoloso 1829 m
2018/10/15 21:50 LIPY 152150Z VRB01KT 9999 SCT020 BKN060 18/17 Q1019
 
LIPR - Rimini Miramare (12 m.)
Dati ricevuti: 16/10/2018 02:20
Molto nuvoloso
Molto nuvoloso
 Vento da W
Vento: W 6 km/h
TEMPERATURA: 17°C
P.to di Rugiada: 15°C
Umidità: 88%
Pressione: 1019 hPa
Nuvole: Molto nuvoloso
Visibilità: 7 km
Dettagli Nuvole: Molto nuvoloso 671 m
2018/10/16 00:20 LIPR 160020Z AUTO 27003KT 220V300 7000 BKN022/// 17/15 Q1019
 
LIRF - Roma Fiumicino (2 m.)
Dati ricevuti: 16/10/2018 02:20
Sereno
Sereno
 Vento da E
Vento: E 7 km/h
TEMPERATURA: 19°C
P.to di Rugiada: 16°C
Umidità: 83%
Pressione: 1016 hPa
Condizioni generali: Sereno
Visibilità: oltre 10 km
2018/10/16 00:20 LIRF 160020Z 08004KT CAVOK 19/16 Q1016 NOSIG
 
LIRA - Roma Ciampino (129 m.)
Dati ricevuti: 16/10/2018 02:20
Poco nuvoloso
Poco nuvoloso
 Vento da E
Vento: E 11 km/h
TEMPERATURA: 19°C
P.to di Rugiada: 14°C
Umidità: 73%
Pressione: 1016 hPa
Nuvole: Poco nuvoloso
Visibilità: 10 km
Dettagli Nuvole: Poco nuvoloso 2134 m
2018/10/16 00:20 LIRA 160020Z 08006KT 9999 SCT070 19/14 Q1016
 
LIRU - Roma Urbe (17 m.)
Dati ricevuti: 15/10/2018 19:50
Dati non aggiornati
Qualche nuvola
Qualche nuvola
 Vento da direzione variabile
Vento: direzione variabile 4 km/h
TEMPERATURA: 21°C
P.to di Rugiada: 14°C
Umidità: 64%
Pressione: 1016 hPa
Nuvole: Qualche nuvola
Visibilità: 10 km
Dettagli Nuvole: Qualche nuvola 1372 m
2018/10/15 17:50 LIRU 151750Z VRB02KT 9999 FEW045 21/14 Q1016
 
LIVF - Frontone (570 m.)
Dati ricevuti: 16/10/2018 01:55
Poco nuvoloso
Poco nuvoloso
 Vento da NE
Vento: NE 4 km/h
TEMPERATURA: 13°C
P.to di Rugiada: 12°C
Umidità: 94%
Pressione: 1018 hPa
Nuvole: Poco nuvoloso
Visibilità: 7 km
Dettagli Nuvole: Poco nuvoloso 884 m
2018/10/15 23:55 LIVF 152355Z 04002KT 7000 SCT029 13/12 Q1018 RMK BKN SCT070 MON INVIS VAL FOSCHIA AUM VIS MIN 7000
 
LIRQ - Firenze Peretola (40 m.)
Dati ricevuti: 16/10/2018 01:50
Sereno
Sereno
 Vento da SSW
Vento: SSW 6 km/h
TEMPERATURA: 17°C
P.to di Rugiada: 13°C
Umidità: 77%
Pressione: 1018 hPa
Condizioni generali: Sereno
Visibilità: oltre 10 km
2018/10/15 23:50 LIRQ 152350Z 20003KT CAVOK 17/13 Q1018
 
LIBP - Pescara (10 m.)
Dati ricevuti: 16/10/2018 01:59
Foschia, Coperto
Foschia, Coperto
 Vento da WSW
Vento: WSW 6 km/h
TEMPERATURA: 17°C
P.to di Rugiada: 17°C
Umidità: 100%
Pressione: 1019 hPa
Condizioni generali: Foschia
Nuvole: Coperto
Visibilità: 4 km
Dettagli Nuvole: Coperto 427 m
2018/10/15 23:59 LIBP 152359Z AUTO 24003KT 3700 BR OVC014/// 17/17 Q1019
 
LIRV - Viterbo (300 m.)
Dati ricevuti: 15/10/2018 19:55
Dati non aggiornati
Sereno
Sereno
 Vento da direzione variabile
Vento: direzione variabile 0 km/h
TEMPERATURA: 19°C
P.to di Rugiada: 13°C
Umidità: 68%
Pressione: 1016 hPa
Condizioni generali: Sereno
Visibilità: oltre 10 km
2018/10/15 17:55 LIRV 151755Z /////KT CAVOK 19/13 Q1016
 
LIQN - Rieti (389 m.)
Dati ricevuti: 15/10/2018 19:50
Dati non aggiornati
Sereno
Sereno
 Vento da SE
Vento: SE 11 km/h
TEMPERATURA: 20°C
P.to di Rugiada: 12°C
Umidità: 60%
Pressione: 1017 hPa
Condizioni generali: Sereno
Visibilità: oltre 10 km
2018/10/15 17:50 LIQN 151750Z 14006KT CAVOK 20/12 Q1017
 
LIRG - Guidonia -RM- (88 m.)
Dati ricevuti: 15/10/2018 19:55
Dati non aggiornati
Molto nuvoloso
Molto nuvoloso
 Vento da W
Vento: W 4 km/h
TEMPERATURA: 20°C
P.to di Rugiada: 16°C
Umidità: 78%
Pressione: 1016 hPa
Nuvole: Molto nuvoloso
Visibilità: 10 km
Dettagli Nuvole: Molto nuvoloso 1067 m
2018/10/15 17:55 LIRG 151755Z 26002KT 9999 BKN035 20/16 Q1016
 
LIRK - Terminillo -RI-(1874 m.)
Dati ricevuti: 08/06/2018 02:55
Dati non aggiornati

 Vento da direzione variabile
Vento: direzione variabile 0 km/h
2018/06/08 00:55 LIRK 080055Z AUTO /////KT //// ///// Q////
 
LIPK - Forlì (27 m.)
Dati ricevuti: 15/10/2018 17:50
Dati non aggiornati
Poco nuvoloso
Poco nuvoloso
 Vento da direzione variabile
Vento: direzione variabile 4 km/h
TEMPERATURA: 20°C
P.to di Rugiada: 16°C
Umidità: 78%
Pressione: 1018 hPa
Nuvole: Poco nuvoloso
Visibilità: 6 km
Dettagli Nuvole: Qualche nuvola 305 m
Poco nuvoloso 762 m
2018/10/15 15:50 LIPK 151550Z VRB02KT 6000 FEW010 SCT025 20/16 Q1018
 
LIRS - Grosseto (5 m.)
Dati ricevuti: 16/10/2018 01:55
Sereno
Sereno
 Vento da NNE
Vento: NNE 6 km/h
TEMPERATURA: 18°C
P.to di Rugiada: 15°C
Umidità: 83%
Pressione: 1016 hPa
Condizioni generali: Sereno
Visibilità: oltre 10 km
2018/10/15 23:55 LIRS 152355Z 02003KT CAVOK 18/15 Q1016
 
LIRP - Pisa S.Giusto (2 m.)
Dati ricevuti: 16/10/2018 02:15
Poco nuvoloso
Poco nuvoloso
 Vento da E
Vento: E 11 km/h
TEMPERATURA: 18°C
P.to di Rugiada: 14°C
Umidità: 78%
Pressione: 1017 hPa
Nuvole: Poco nuvoloso
Visibilità: 10 km
Dettagli Nuvole: Poco nuvoloso 1829 m
2018/10/16 00:15 LIRP 160015Z 10006KT 9999 SCT060 18/14 Q1017 NOSIG